sensor_id;sensor_type;location;lat;lon;timestamp;P1;durP1;ratioP1;P2;durP2;ratioP2
48993;SDS011;34804;49.214;12.276;2024-02-15T00:02:24;9.07;;;4.47;;
48993;SDS011;34804;49.214;12.276;2024-02-15T00:04:51;7.53;;;4.05;;
48993;SDS011;34804;49.214;12.276;2024-02-15T00:07:18;7.93;;;4.13;;
48993;SDS011;34804;49.214;12.276;2024-02-15T00:09:49;8.07;;;4.05;;
48993;SDS011;34804;49.214;12.276;2024-02-15T00:12:16;8.00;;;4.20;;
48993;SDS011;34804;49.214;12.276;2024-02-15T00:14:43;6.60;;;3.95;;
48993;SDS011;34804;49.214;12.276;2024-02-15T00:17:10;10.05;;;4.55;;
48993;SDS011;34804;49.214;12.276;2024-02-15T00:19:38;8.80;;;4.28;;
48993;SDS011;34804;49.214;12.276;2024-02-15T00:22:08;7.72;;;4.13;;
48993;SDS011;34804;49.214;12.276;2024-02-15T00:24:36;8.85;;;4.57;;
48993;SDS011;34804;49.214;12.276;2024-02-15T00:27:04;7.15;;;4.70;;
48993;SDS011;34804;49.214;12.276;2024-02-15T00:29:31;8.25;;;4.50;;
48993;SDS011;34804;49.214;12.276;2024-02-15T00:31:58;8.85;;;4.85;;
48993;SDS011;34804;49.214;12.276;2024-02-15T00:34:25;11.82;;;4.57;;
48993;SDS011;34804;49.214;12.276;2024-02-15T00:36:53;11.45;;;4.63;;
48993;SDS011;34804;49.214;12.276;2024-02-15T00:39:20;7.63;;;4.53;;
48993;SDS011;34804;49.214;12.276;2024-02-15T00:41:47;8.50;;;5.07;;
48993;SDS011;34804;49.214;12.276;2024-02-15T00:44:15;9.52;;;5.05;;
48993;SDS011;34804;49.214;12.276;2024-02-15T00:46:42;8.82;;;5.00;;
48993;SDS011;34804;49.214;12.276;2024-02-15T00:49:09;8.93;;;4.78;;
48993;SDS011;34804;49.214;12.276;2024-02-15T00:51:36;11.38;;;5.40;;
48993;SDS011;34804;49.214;12.276;2024-02-15T00:54:03;9.60;;;5.20;;
48993;SDS011;34804;49.214;12.276;2024-02-15T00:56:31;10.55;;;5.60;;
48993;SDS011;34804;49.214;12.276;2024-02-15T00:58:59;8.02;;;5.10;;
48993;SDS011;34804;49.214;12.276;2024-02-15T01:01:29;9.25;;;5.43;;
48993;SDS011;34804;49.214;12.276;2024-02-15T01:03:57;9.48;;;5.35;;
48993;SDS011;34804;49.214;12.276;2024-02-15T01:06:24;9.05;;;5.18;;
48993;SDS011;34804;49.214;12.276;2024-02-15T01:08:51;9.95;;;5.13;;
48993;SDS011;34804;49.214;12.276;2024-02-15T01:11:18;9.82;;;5.07;;
48993;SDS011;34804;49.214;12.276;2024-02-15T01:13:45;11.38;;;5.30;;
48993;SDS011;34804;49.214;12.276;2024-02-15T01:16:12;10.13;;;5.72;;
48993;SDS011;34804;49.214;12.276;2024-02-15T01:18:39;9.93;;;5.13;;
48993;SDS011;34804;49.214;12.276;2024-02-15T01:21:06;10.00;;;5.25;;
48993;SDS011;34804;49.214;12.276;2024-02-15T01:23:33;9.77;;;4.95;;
48993;SDS011;34804;49.214;12.276;2024-02-15T01:26:03;10.82;;;5.93;;
48993;SDS011;34804;49.214;12.276;2024-02-15T01:28:31;10.00;;;5.72;;
48993;SDS011;34804;49.214;12.276;2024-02-15T01:30:59;9.90;;;5.00;;
48993;SDS011;34804;49.214;12.276;2024-02-15T01:33:26;9.07;;;5.45;;
48993;SDS011;34804;49.214;12.276;2024-02-15T01:35:54;10.77;;;5.82;;
48993;SDS011;34804;49.214;12.276;2024-02-15T01:38:21;10.35;;;5.53;;
48993;SDS011;34804;49.214;12.276;2024-02-15T01:40:48;10.38;;;6.07;;
48993;SDS011;34804;49.214;12.276;2024-02-15T01:43:15;9.70;;;5.75;;
48993;SDS011;34804;49.214;12.276;2024-02-15T01:45:42;9.50;;;5.50;;
48993;SDS011;34804;49.214;12.276;2024-02-15T01:48:09;7.60;;;5.13;;
48993;SDS011;34804;49.214;12.276;2024-02-15T01:50:37;9.02;;;5.55;;
48993;SDS011;34804;49.214;12.276;2024-02-15T01:53:05;9.88;;;5.70;;
48993;SDS011;34804;49.214;12.276;2024-02-15T01:55:34;10.52;;;5.60;;
48993;SDS011;34804;49.214;12.276;2024-02-15T01:58:02;9.93;;;5.63;;
48993;SDS011;34804;49.214;12.276;2024-02-15T02:00:30;11.20;;;6.03;;
48993;SDS011;34804;49.214;12.276;2024-02-15T02:02:57;8.85;;;4.97;;
48993;SDS011;34804;49.214;12.276;2024-02-15T02:05:29;9.27;;;5.32;;
48993;SDS011;34804;49.214;12.276;2024-02-15T02:07:58;9.48;;;5.35;;
48993;SDS011;34804;49.214;12.276;2024-02-15T02:10:28;10.70;;;5.63;;
48993;SDS011;34804;49.214;12.276;2024-02-15T02:13:00;11.38;;;6.20;;
48993;SDS011;34804;49.214;12.276;2024-02-15T02:15:29;9.80;;;5.20;;
48993;SDS011;34804;49.214;12.276;2024-02-15T02:17:58;8.48;;;5.38;;
48993;SDS011;34804;49.214;12.276;2024-02-15T02:20:26;8.77;;;5.30;;
48993;SDS011;34804;49.214;12.276;2024-02-15T02:22:54;10.02;;;5.80;;
48993;SDS011;34804;49.214;12.276;2024-02-15T02:25:33;9.05;;;5.00;;
48993;SDS011;34804;49.214;12.276;2024-02-15T02:28:01;11.55;;;5.10;;
48993;SDS011;34804;49.214;12.276;2024-02-15T02:30:28;8.63;;;4.80;;
48993;SDS011;34804;49.214;12.276;2024-02-15T02:32:58;10.10;;;4.80;;
48993;SDS011;34804;49.214;12.276;2024-02-15T02:35:26;9.23;;;5.22;;
48993;SDS011;34804;49.214;12.276;2024-02-15T02:37:54;8.15;;;4.90;;
48993;SDS011;34804;49.214;12.276;2024-02-15T02:40:21;9.30;;;5.07;;
48993;SDS011;34804;49.214;12.276;2024-02-15T02:45:19;8.50;;;4.90;;
48993;SDS011;34804;49.214;12.276;2024-02-15T02:47:49;9.95;;;4.82;;
48993;SDS011;34804;49.214;12.276;2024-02-15T02:50:20;8.27;;;5.10;;
48993;SDS011;34804;49.214;12.276;2024-02-15T02:52:49;7.97;;;4.90;;
48993;SDS011;34804;49.214;12.276;2024-02-15T02:55:16;9.85;;;5.35;;
48993;SDS011;34804;49.214;12.276;2024-02-15T02:57:43;7.90;;;4.93;;
48993;SDS011;34804;49.214;12.276;2024-02-15T03:00:12;9.73;;;5.13;;
48993;SDS011;34804;49.214;12.276;2024-02-15T03:02:42;10.48;;;5.00;;
48993;SDS011;34804;49.214;12.276;2024-02-15T03:05:10;8.90;;;5.18;;
48993;SDS011;34804;49.214;12.276;2024-02-15T03:07:40;8.45;;;5.05;;
48993;SDS011;34804;49.214;12.276;2024-02-15T03:10:07;10.15;;;5.28;;
48993;SDS011;34804;49.214;12.276;2024-02-15T03:12:36;9.07;;;5.10;;
48993;SDS011;34804;49.214;12.276;2024-02-15T03:15:04;10.85;;;5.07;;
48993;SDS011;34804;49.214;12.276;2024-02-15T03:17:38;9.50;;;4.75;;
48993;SDS011;34804;49.214;12.276;2024-02-15T03:20:10;11.35;;;5.47;;
48993;SDS011;34804;49.214;12.276;2024-02-15T03:22:38;12.23;;;6.18;;
48993;SDS011;34804;49.214;12.276;2024-02-15T03:25:05;12.52;;;6.18;;
48993;SDS011;34804;49.214;12.276;2024-02-15T03:27:35;13.23;;;5.80;;
48993;SDS011;34804;49.214;12.276;2024-02-15T03:30:03;12.25;;;6.60;;
48993;SDS011;34804;49.214;12.276;2024-02-15T03:32:34;12.60;;;6.35;;
48993;SDS011;34804;49.214;12.276;2024-02-15T03:35:01;9.90;;;5.93;;
48993;SDS011;34804;49.214;12.276;2024-02-15T03:37:28;11.85;;;6.60;;
48993;SDS011;34804;49.214;12.276;2024-02-15T03:39:55;11.93;;;6.38;;
48993;SDS011;34804;49.214;12.276;2024-02-15T03:42:22;9.73;;;5.88;;
48993;SDS011;34804;49.214;12.276;2024-02-15T03:44:49;9.90;;;6.50;;
48993;SDS011;34804;49.214;12.276;2024-02-15T03:47:16;10.68;;;6.60;;
48993;SDS011;34804;49.214;12.276;2024-02-15T03:49:43;11.15;;;7.07;;
48993;SDS011;34804;49.214;12.276;2024-02-15T03:52:10;11.52;;;6.88;;
48993;SDS011;34804;49.214;12.276;2024-02-15T03:54:37;10.45;;;6.47;;
48993;SDS011;34804;49.214;12.276;2024-02-15T03:57:04;8.65;;;5.50;;
48993;SDS011;34804;49.214;12.276;2024-02-15T03:59:33;10.35;;;6.05;;
48993;SDS011;34804;49.214;12.276;2024-02-15T04:02:01;10.02;;;6.47;;
48993;SDS011;34804;49.214;12.276;2024-02-15T04:04:30;9.18;;;6.00;;
48993;SDS011;34804;49.214;12.276;2024-02-15T04:06:57;13.52;;;6.25;;
48993;SDS011;34804;49.214;12.276;2024-02-15T04:09:25;12.02;;;7.07;;
48993;SDS011;34804;49.214;12.276;2024-02-15T04:11:52;12.00;;;5.88;;
48993;SDS011;34804;49.214;12.276;2024-02-15T04:14:23;10.57;;;6.80;;
48993;SDS011;34804;49.214;12.276;2024-02-15T04:16:51;15.98;;;6.63;;
48993;SDS011;34804;49.214;12.276;2024-02-15T04:19:18;11.90;;;7.00;;
48993;SDS011;34804;49.214;12.276;2024-02-15T04:21:48;11.32;;;6.60;;
48993;SDS011;34804;49.214;12.276;2024-02-15T04:24:17;11.65;;;6.22;;
48993;SDS011;34804;49.214;12.276;2024-02-15T04:26:44;11.20;;;6.50;;
48993;SDS011;34804;49.214;12.276;2024-02-15T04:29:14;11.13;;;6.30;;
48993;SDS011;34804;49.214;12.276;2024-02-15T04:31:41;9.70;;;6.55;;
48993;SDS011;34804;49.214;12.276;2024-02-15T04:34:09;10.95;;;6.72;;
48993;SDS011;34804;49.214;12.276;2024-02-15T04:36:36;10.88;;;6.60;;
48993;SDS011;34804;49.214;12.276;2024-02-15T04:39:03;11.48;;;7.40;;
48993;SDS011;34804;49.214;12.276;2024-02-15T04:41:31;11.85;;;7.90;;
48993;SDS011;34804;49.214;12.276;2024-02-15T04:43:57;12.88;;;7.55;;
48993;SDS011;34804;49.214;12.276;2024-02-15T04:46:24;12.10;;;7.43;;
48993;SDS011;34804;49.214;12.276;2024-02-15T04:48:51;11.18;;;7.45;;
48993;SDS011;34804;49.214;12.276;2024-02-15T04:51:18;11.13;;;7.30;;
48993;SDS011;34804;49.214;12.276;2024-02-15T04:53:46;11.02;;;7.60;;
48993;SDS011;34804;49.214;12.276;2024-02-15T04:56:14;11.70;;;7.82;;
48993;SDS011;34804;49.214;12.276;2024-02-15T04:58:42;10.65;;;6.75;;
48993;SDS011;34804;49.214;12.276;2024-02-15T05:01:14;11.85;;;7.35;;
48993;SDS011;34804;49.214;12.276;2024-02-15T05:03:42;11.52;;;6.68;;
48993;SDS011;34804;49.214;12.276;2024-02-15T05:06:13;12.18;;;7.63;;
48993;SDS011;34804;49.214;12.276;2024-02-15T05:08:40;13.43;;;7.85;;
48993;SDS011;34804;49.214;12.276;2024-02-15T05:11:11;13.32;;;7.40;;
48993;SDS011;34804;49.214;12.276;2024-02-15T05:13:44;13.43;;;8.73;;
48993;SDS011;34804;49.214;12.276;2024-02-15T05:16:12;13.75;;;8.23;;
48993;SDS011;34804;49.214;12.276;2024-02-15T05:18:39;14.02;;;7.95;;
48993;SDS011;34804;49.214;12.276;2024-02-15T05:21:09;15.73;;;8.35;;
48993;SDS011;34804;49.214;12.276;2024-02-15T05:23:36;14.60;;;8.45;;
48993;SDS011;34804;49.214;12.276;2024-02-15T05:26:06;13.90;;;8.10;;
48993;SDS011;34804;49.214;12.276;2024-02-15T05:28:33;11.52;;;7.43;;
48993;SDS011;34804;49.214;12.276;2024-02-15T05:31:11;13.55;;;8.27;;
48993;SDS011;34804;49.214;12.276;2024-02-15T05:33:43;12.23;;;7.47;;
48993;SDS011;34804;49.214;12.276;2024-02-15T05:36:11;13.63;;;7.78;;
48993;SDS011;34804;49.214;12.276;2024-02-15T05:38:39;11.85;;;7.57;;
48993;SDS011;34804;49.214;12.276;2024-02-15T05:41:06;10.90;;;7.47;;
48993;SDS011;34804;49.214;12.276;2024-02-15T05:43:34;11.95;;;7.65;;
48993;SDS011;34804;49.214;12.276;2024-02-15T05:46:03;13.15;;;7.63;;
48993;SDS011;34804;49.214;12.276;2024-02-15T05:48:32;11.63;;;8.13;;
48993;SDS011;34804;49.214;12.276;2024-02-15T05:51:02;12.23;;;7.72;;
48993;SDS011;34804;49.214;12.276;2024-02-15T05:53:29;15.27;;;8.10;;
48993;SDS011;34804;49.214;12.276;2024-02-15T05:55:57;12.55;;;8.43;;
48993;SDS011;34804;49.214;12.276;2024-02-15T05:58:24;12.38;;;7.78;;
48993;SDS011;34804;49.214;12.276;2024-02-15T06:00:51;13.30;;;7.68;;
48993;SDS011;34804;49.214;12.276;2024-02-15T06:03:19;11.98;;;8.02;;
48993;SDS011;34804;49.214;12.276;2024-02-15T06:08:25;12.43;;;7.93;;
48993;SDS011;34804;49.214;12.276;2024-02-15T06:10:52;10.77;;;7.55;;
48993;SDS011;34804;49.214;12.276;2024-02-15T06:13:19;13.75;;;8.70;;
48993;SDS011;34804;49.214;12.276;2024-02-15T06:15:47;14.70;;;8.48;;
48993;SDS011;34804;49.214;12.276;2024-02-15T06:18:19;11.65;;;8.18;;
48993;SDS011;34804;49.214;12.276;2024-02-15T06:20:48;13.77;;;8.18;;
48993;SDS011;34804;49.214;12.276;2024-02-15T06:23:21;12.77;;;8.25;;
48993;SDS011;34804;49.214;12.276;2024-02-15T06:25:50;13.27;;;8.60;;
48993;SDS011;34804;49.214;12.276;2024-02-15T06:28:19;14.63;;;8.18;;
48993;SDS011;34804;49.214;12.276;2024-02-15T06:31:09;14.95;;;9.00;;
48993;SDS011;34804;49.214;12.276;2024-02-15T06:33:55;13.60;;;8.57;;
48993;SDS011;34804;49.214;12.276;2024-02-15T06:36:52;12.73;;;8.85;;
48993;SDS011;34804;49.214;12.276;2024-02-15T06:39:38;13.85;;;8.85;;
48993;SDS011;34804;49.214;12.276;2024-02-15T06:42:09;14.57;;;9.82;;
48993;SDS011;34804;49.214;12.276;2024-02-15T06:44:38;13.10;;;8.95;;
48993;SDS011;34804;49.214;12.276;2024-02-15T06:47:07;13.27;;;8.50;;
48993;SDS011;34804;49.214;12.276;2024-02-15T06:49:37;12.85;;;8.57;;
48993;SDS011;34804;49.214;12.276;2024-02-15T06:52:07;13.68;;;8.63;;
48993;SDS011;34804;49.214;12.276;2024-02-15T06:54:34;12.00;;;7.28;;
48993;SDS011;34804;49.214;12.276;2024-02-15T06:57:02;13.65;;;8.00;;
48993;SDS011;34804;49.214;12.276;2024-02-15T06:59:31;11.80;;;7.47;;
48993;SDS011;34804;49.214;12.276;2024-02-15T07:01:59;14.55;;;9.25;;
48993;SDS011;34804;49.214;12.276;2024-02-15T07:04:26;13.40;;;8.32;;
48993;SDS011;34804;49.214;12.276;2024-02-15T07:06:54;11.38;;;7.47;;
48993;SDS011;34804;49.214;12.276;2024-02-15T07:09:22;12.40;;;7.78;;
48993;SDS011;34804;49.214;12.276;2024-02-15T07:11:51;11.27;;;7.88;;
48993;SDS011;34804;49.214;12.276;2024-02-15T07:14:18;12.07;;;7.30;;
48993;SDS011;34804;49.214;12.276;2024-02-15T07:16:46;14.90;;;8.57;;
48993;SDS011;34804;49.214;12.276;2024-02-15T07:19:14;11.77;;;8.02;;
48993;SDS011;34804;49.214;12.276;2024-02-15T07:21:42;12.93;;;8.57;;
48993;SDS011;34804;49.214;12.276;2024-02-15T07:24:10;10.82;;;7.55;;
48993;SDS011;34804;49.214;12.276;2024-02-15T07:26:37;13.07;;;9.13;;
48993;SDS011;34804;49.214;12.276;2024-02-15T07:29:04;12.93;;;9.30;;
48993;SDS011;34804;49.214;12.276;2024-02-15T07:31:32;14.35;;;9.57;;
48993;SDS011;34804;49.214;12.276;2024-02-15T07:34:00;15.90;;;9.18;;
48993;SDS011;34804;49.214;12.276;2024-02-15T07:36:28;14.80;;;9.23;;
48993;SDS011;34804;49.214;12.276;2024-02-15T07:38:55;13.85;;;9.23;;
48993;SDS011;34804;49.214;12.276;2024-02-15T07:41:27;12.52;;;9.10;;
48993;SDS011;34804;49.214;12.276;2024-02-15T07:43:54;18.73;;;10.45;;
48993;SDS011;34804;49.214;12.276;2024-02-15T07:46:22;15.48;;;9.10;;
48993;SDS011;34804;49.214;12.276;2024-02-15T07:48:50;12.90;;;8.93;;
48993;SDS011;34804;49.214;12.276;2024-02-15T07:51:18;13.43;;;8.48;;
48993;SDS011;34804;49.214;12.276;2024-02-15T07:53:46;16.30;;;9.55;;
48993;SDS011;34804;49.214;12.276;2024-02-15T07:56:15;12.57;;;8.93;;
48993;SDS011;34804;49.214;12.276;2024-02-15T07:58:43;13.95;;;8.82;;
48993;SDS011;34804;49.214;12.276;2024-02-15T08:01:18;11.70;;;8.07;;
48993;SDS011;34804;49.214;12.276;2024-02-15T08:03:51;13.25;;;9.10;;
48993;SDS011;34804;49.214;12.276;2024-02-15T08:06:20;12.88;;;9.07;;
48993;SDS011;34804;49.214;12.276;2024-02-15T08:08:51;16.30;;;9.20;;
48993;SDS011;34804;49.214;12.276;2024-02-15T08:11:19;16.08;;;9.27;;
48993;SDS011;34804;49.214;12.276;2024-02-15T08:13:46;12.32;;;8.65;;
48993;SDS011;34804;49.214;12.276;2024-02-15T08:16:20;13.48;;;8.40;;
48993;SDS011;34804;49.214;12.276;2024-02-15T08:21:25;11.90;;;8.02;;
48993;SDS011;34804;49.214;12.276;2024-02-15T08:23:56;14.80;;;8.73;;
48993;SDS011;34804;49.214;12.276;2024-02-15T08:26:23;14.20;;;9.50;;
48993;SDS011;34804;49.214;12.276;2024-02-15T08:28:50;16.35;;;9.25;;
48993;SDS011;34804;49.214;12.276;2024-02-15T08:31:17;11.63;;;8.18;;
48993;SDS011;34804;49.214;12.276;2024-02-15T08:33:45;13.05;;;8.68;;
48993;SDS011;34804;49.214;12.276;2024-02-15T08:36:13;18.30;;;8.73;;
48993;SDS011;34804;49.214;12.276;2024-02-15T08:38:40;12.75;;;7.95;;
48993;SDS011;34804;49.214;12.276;2024-02-15T08:41:07;12.45;;;8.68;;
48993;SDS011;34804;49.214;12.276;2024-02-15T08:43:37;12.98;;;8.55;;
48993;SDS011;34804;49.214;12.276;2024-02-15T08:46:08;12.55;;;8.00;;
48993;SDS011;34804;49.214;12.276;2024-02-15T08:48:34;12.65;;;8.57;;
48993;SDS011;34804;49.214;12.276;2024-02-15T08:51:02;12.15;;;8.05;;
48993;SDS011;34804;49.214;12.276;2024-02-15T08:53:29;14.57;;;9.18;;
48993;SDS011;34804;49.214;12.276;2024-02-15T08:55:58;12.73;;;8.43;;
48993;SDS011;34804;49.214;12.276;2024-02-15T08:58:25;15.20;;;9.20;;
48993;SDS011;34804;49.214;12.276;2024-02-15T09:00:53;12.48;;;8.50;;
48993;SDS011;34804;49.214;12.276;2024-02-15T09:03:20;11.90;;;8.02;;
48993;SDS011;34804;49.214;12.276;2024-02-15T09:05:47;13.20;;;8.65;;
48993;SDS011;34804;49.214;12.276;2024-02-15T09:08:15;13.95;;;8.23;;
48993;SDS011;34804;49.214;12.276;2024-02-15T09:10:41;12.68;;;8.50;;
48993;SDS011;34804;49.214;12.276;2024-02-15T09:13:09;11.30;;;8.20;;
48993;SDS011;34804;49.214;12.276;2024-02-15T09:15:35;16.13;;;8.07;;
48993;SDS011;34804;49.214;12.276;2024-02-15T09:18:02;14.05;;;8.25;;
48993;SDS011;34804;49.214;12.276;2024-02-15T09:20:30;13.63;;;7.95;;
48993;SDS011;34804;49.214;12.276;2024-02-15T09:22:58;12.88;;;8.68;;
48993;SDS011;34804;49.214;12.276;2024-02-15T09:25:34;12.07;;;8.00;;
48993;SDS011;34804;49.214;12.276;2024-02-15T09:28:04;12.55;;;7.72;;
48993;SDS011;34804;49.214;12.276;2024-02-15T09:30:31;13.75;;;7.97;;
48993;SDS011;34804;49.214;12.276;2024-02-15T09:32:58;10.27;;;6.60;;
48993;SDS011;34804;49.214;12.276;2024-02-15T09:35:25;10.52;;;7.00;;
48993;SDS011;34804;49.214;12.276;2024-02-15T09:37:53;11.05;;;7.07;;
48993;SDS011;34804;49.214;12.276;2024-02-15T09:40:21;11.38;;;5.75;;
48993;SDS011;34804;49.214;12.276;2024-02-15T09:42:52;9.40;;;5.80;;
48993;SDS011;34804;49.214;12.276;2024-02-15T09:45:19;10.85;;;5.93;;
48993;SDS011;34804;49.214;12.276;2024-02-15T09:47:47;7.80;;;4.90;;
48993;SDS011;34804;49.214;12.276;2024-02-15T09:50:19;9.23;;;4.97;;
48993;SDS011;34804;49.214;12.276;2024-02-15T09:52:49;9.00;;;4.70;;
48993;SDS011;34804;49.214;12.276;2024-02-15T09:55:25;10.30;;;5.93;;
48993;SDS011;34804;49.214;12.276;2024-02-15T09:58:25;9.25;;;5.15;;
48993;SDS011;34804;49.214;12.276;2024-02-15T10:00:52;10.32;;;5.22;;
48993;SDS011;34804;49.214;12.276;2024-02-15T10:03:19;8.95;;;4.82;;
48993;SDS011;34804;49.214;12.276;2024-02-15T10:05:50;9.60;;;5.10;;
48993;SDS011;34804;49.214;12.276;2024-02-15T10:08:18;7.60;;;4.72;;
48993;SDS011;34804;49.214;12.276;2024-02-15T10:10:47;8.48;;;5.07;;
48993;SDS011;34804;49.214;12.276;2024-02-15T10:13:34;10.95;;;4.47;;
48993;SDS011;34804;49.214;12.276;2024-02-15T10:16:16;8.88;;;4.70;;
48993;SDS011;34804;49.214;12.276;2024-02-15T10:18:45;8.65;;;4.85;;
48993;SDS011;34804;49.214;12.276;2024-02-15T10:21:24;8.00;;;4.70;;
48993;SDS011;34804;49.214;12.276;2024-02-15T10:26:33;9.55;;;4.25;;
48993;SDS011;34804;49.214;12.276;2024-02-15T10:29:05;8.35;;;4.47;;
48993;SDS011;34804;49.214;12.276;2024-02-15T10:31:38;8.48;;;4.60;;
48993;SDS011;34804;49.214;12.276;2024-02-15T10:34:07;8.43;;;4.20;;
48993;SDS011;34804;49.214;12.276;2024-02-15T10:36:34;8.20;;;4.60;;
48993;SDS011;34804;49.214;12.276;2024-02-15T10:39:20;9.45;;;4.28;;
48993;SDS011;34804;49.214;12.276;2024-02-15T10:41:48;7.88;;;4.50;;
48993;SDS011;34804;49.214;12.276;2024-02-15T10:44:20;7.97;;;4.00;;
48993;SDS011;34804;49.214;12.276;2024-02-15T10:46:49;6.32;;;3.95;;
48993;SDS011;34804;49.214;12.276;2024-02-15T10:49:21;5.75;;;3.38;;
48993;SDS011;34804;49.214;12.276;2024-02-15T10:51:56;8.07;;;3.95;;
48993;SDS011;34804;49.214;12.276;2024-02-15T10:56:59;7.53;;;3.47;;
48993;SDS011;34804;49.214;12.276;2024-02-15T10:59:31;7.00;;;3.97;;
48993;SDS011;34804;49.214;12.276;2024-02-15T11:02:03;8.57;;;3.72;;
48993;SDS011;34804;49.214;12.276;2024-02-15T11:04:53;9.43;;;3.70;;
48993;SDS011;34804;49.214;12.276;2024-02-15T11:07:24;8.98;;;3.90;;
48993;SDS011;34804;49.214;12.276;2024-02-15T11:09:57;8.18;;;3.95;;
48993;SDS011;34804;49.214;12.276;2024-02-15T11:12:26;8.15;;;4.18;;
48993;SDS011;34804;49.214;12.276;2024-02-15T11:14:54;6.72;;;3.83;;
48993;SDS011;34804;49.214;12.276;2024-02-15T11:20:06;6.65;;;3.42;;
48993;SDS011;34804;49.214;12.276;2024-02-15T11:22:35;6.50;;;3.22;;
48993;SDS011;34804;49.214;12.276;2024-02-15T11:25:03;8.75;;;3.80;;
48993;SDS011;34804;49.214;12.276;2024-02-15T11:27:37;6.72;;;3.15;;
48993;SDS011;34804;49.214;12.276;2024-02-15T11:30:06;6.88;;;3.40;;
48993;SDS011;34804;49.214;12.276;2024-02-15T11:32:45;6.85;;;3.50;;
48993;SDS011;34804;49.214;12.276;2024-02-15T11:35:18;6.20;;;3.35;;
48993;SDS011;34804;49.214;12.276;2024-02-15T11:37:52;5.97;;;2.92;;
48993;SDS011;34804;49.214;12.276;2024-02-15T11:40:24;4.72;;;2.53;;
48993;SDS011;34804;49.214;12.276;2024-02-15T11:42:57;7.93;;;2.60;;
48993;SDS011;34804;49.214;12.276;2024-02-15T11:45:26;6.03;;;2.88;;
48993;SDS011;34804;49.214;12.276;2024-02-15T11:47:59;6.03;;;3.13;;
48993;SDS011;34804;49.214;12.276;2024-02-15T11:50:28;6.82;;;2.65;;
48993;SDS011;34804;49.214;12.276;2024-02-15T11:53:03;7.90;;;3.13;;
48993;SDS011;34804;49.214;12.276;2024-02-15T11:55:37;5.45;;;2.40;;
48993;SDS011;34804;49.214;12.276;2024-02-15T11:58:05;7.07;;;3.28;;
48993;SDS011;34804;49.214;12.276;2024-02-15T12:00:34;7.32;;;2.95;;
48993;SDS011;34804;49.214;12.276;2024-02-15T12:03:20;6.70;;;2.65;;
48993;SDS011;34804;49.214;12.276;2024-02-15T12:06:21;7.28;;;2.60;;
48993;SDS011;34804;49.214;12.276;2024-02-15T12:09:07;5.75;;;2.78;;
48993;SDS011;34804;49.214;12.276;2024-02-15T12:11:58;4.95;;;2.38;;
48993;SDS011;34804;49.214;12.276;2024-02-15T12:14:43;5.82;;;2.67;;
48993;SDS011;34804;49.214;12.276;2024-02-15T12:17:30;7.07;;;2.35;;
48993;SDS011;34804;49.214;12.276;2024-02-15T12:20:16;5.35;;;2.00;;
48993;SDS011;34804;49.214;12.276;2024-02-15T12:22:51;5.38;;;1.80;;
48993;SDS011;34804;49.214;12.276;2024-02-15T12:25:19;5.15;;;1.80;;
48993;SDS011;34804;49.214;12.276;2024-02-15T12:27:58;5.10;;;1.58;;
48993;SDS011;34804;49.214;12.276;2024-02-15T12:30:33;4.47;;;1.40;;
48993;SDS011;34804;49.214;12.276;2024-02-15T12:33:10;7.22;;;1.65;;
48993;SDS011;34804;49.214;12.276;2024-02-15T12:35:39;5.47;;;1.73;;
48993;SDS011;34804;49.214;12.276;2024-02-15T12:38:05;4.72;;;1.23;;
48993;SDS011;34804;49.214;12.276;2024-02-15T12:40:35;6.20;;;1.70;;
48993;SDS011;34804;49.214;12.276;2024-02-15T12:43:07;5.07;;;1.40;;
48993;SDS011;34804;49.214;12.276;2024-02-15T12:45:35;4.05;;;1.40;;
48993;SDS011;34804;49.214;12.276;2024-02-15T12:48:04;3.25;;;1.40;;
48993;SDS011;34804;49.214;12.276;2024-02-15T12:50:34;4.45;;;1.40;;
48993;SDS011;34804;49.214;12.276;2024-02-15T12:53:02;5.88;;;1.30;;
48993;SDS011;34804;49.214;12.276;2024-02-15T12:55:29;3.63;;;1.27;;
48993;SDS011;34804;49.214;12.276;2024-02-15T12:58:02;3.88;;;1.40;;
48993;SDS011;34804;49.214;12.276;2024-02-15T13:00:31;3.97;;;1.42;;
48993;SDS011;34804;49.214;12.276;2024-02-15T13:03:00;3.25;;;1.30;;
48993;SDS011;34804;49.214;12.276;2024-02-15T13:05:31;3.20;;;0.80;;
48993;SDS011;34804;49.214;12.276;2024-02-15T13:07:59;3.70;;;0.82;;
48993;SDS011;34804;49.214;12.276;2024-02-15T13:10:28;3.10;;;0.80;;
48993;SDS011;34804;49.214;12.276;2024-02-15T13:12:55;4.50;;;0.90;;
48993;SDS011;34804;49.214;12.276;2024-02-15T13:15:23;1.35;;;0.52;;
48993;SDS011;34804;49.214;12.276;2024-02-15T13:17:54;3.10;;;0.85;;
48993;SDS011;34804;49.214;12.276;2024-02-15T13:20:22;2.47;;;0.77;;
48993;SDS011;34804;49.214;12.276;2024-02-15T13:23:00;3.72;;;1.00;;
48993;SDS011;34804;49.214;12.276;2024-02-15T13:25:43;3.67;;;1.13;;
48993;SDS011;34804;49.214;12.276;2024-02-15T13:28:11;2.63;;;1.00;;
48993;SDS011;34804;49.214;12.276;2024-02-15T13:30:40;1.92;;;1.00;;
48993;SDS011;34804;49.214;12.276;2024-02-15T13:33:09;2.38;;;0.90;;
48993;SDS011;34804;49.214;12.276;2024-02-15T13:35:36;3.50;;;0.98;;
48993;SDS011;34804;49.214;12.276;2024-02-15T13:38:03;3.53;;;0.90;;
48993;SDS011;34804;49.214;12.276;2024-02-15T13:40:30;2.72;;;1.00;;
48993;SDS011;34804;49.214;12.276;2024-02-15T13:42:58;3.45;;;0.90;;
48993;SDS011;34804;49.214;12.276;2024-02-15T13:45:32;3.17;;;1.00;;
48993;SDS011;34804;49.214;12.276;2024-02-15T13:48:06;3.70;;;0.90;;
48993;SDS011;34804;49.214;12.276;2024-02-15T13:50:35;4.75;;;1.10;;
48993;SDS011;34804;49.214;12.276;2024-02-15T13:53:03;3.15;;;0.80;;
48993;SDS011;34804;49.214;12.276;2024-02-15T13:55:31;2.88;;;0.70;;
48993;SDS011;34804;49.214;12.276;2024-02-15T13:57:58;3.33;;;0.90;;
48993;SDS011;34804;49.214;12.276;2024-02-15T14:00:26;4.15;;;1.38;;
48993;SDS011;34804;49.214;12.276;2024-02-15T14:02:57;3.08;;;0.90;;
48993;SDS011;34804;49.214;12.276;2024-02-15T14:05:25;3.53;;;0.93;;
48993;SDS011;34804;49.214;12.276;2024-02-15T14:07:57;1.13;;;0.40;;
48993;SDS011;34804;49.214;12.276;2024-02-15T14:10:29;3.38;;;0.75;;
48993;SDS011;34804;49.214;12.276;2024-02-15T14:13:02;5.15;;;1.02;;
48993;SDS011;34804;49.214;12.276;2024-02-15T14:15:34;4.00;;;1.15;;
48993;SDS011;34804;49.214;12.276;2024-02-15T14:18:07;3.28;;;1.13;;
48993;SDS011;34804;49.214;12.276;2024-02-15T14:20:45;3.60;;;1.00;;
48993;SDS011;34804;49.214;12.276;2024-02-15T14:23:14;2.67;;;0.75;;
48993;SDS011;34804;49.214;12.276;2024-02-15T14:25:42;3.25;;;0.77;;
48993;SDS011;34804;49.214;12.276;2024-02-15T14:28:10;6.03;;;1.17;;
48993;SDS011;34804;49.214;12.276;2024-02-15T14:30:39;3.85;;;1.00;;
48993;SDS011;34804;49.214;12.276;2024-02-15T14:33:25;4.35;;;1.23;;
48993;SDS011;34804;49.214;12.276;2024-02-15T14:35:59;3.80;;;0.90;;
48993;SDS011;34804;49.214;12.276;2024-02-15T14:38:27;2.42;;;0.90;;
48993;SDS011;34804;49.214;12.276;2024-02-15T14:40:55;2.95;;;1.00;;
48993;SDS011;34804;49.214;12.276;2024-02-15T14:43:25;3.20;;;0.77;;
48993;SDS011;34804;49.214;12.276;2024-02-15T14:45:53;4.00;;;1.10;;
48993;SDS011;34804;49.214;12.276;2024-02-15T14:48:23;3.60;;;1.00;;
48993;SDS011;34804;49.214;12.276;2024-02-15T14:50:56;3.55;;;1.20;;
48993;SDS011;34804;49.214;12.276;2024-02-15T14:53:24;5.40;;;1.40;;
48993;SDS011;34804;49.214;12.276;2024-02-15T14:55:51;3.95;;;1.20;;
48993;SDS011;34804;49.214;12.276;2024-02-15T14:58:21;4.50;;;1.30;;
48993;SDS011;34804;49.214;12.276;2024-02-15T15:00:49;3.70;;;1.10;;